Wetterdaten: Woche 01.05.17 - 07.05.17 (KW18)
Datum Zeit Temp. A. Pool Temp. Feuchte A. Luftdruck Regen Wind Richtung Sonnenschein ET UV Solar Taupunkt Windchill Windben Empfang
01.05.2017 00:00 8,2 C 10,8 C 68 % 1008,6 hPa 0,0 l/m 16,8 km/h (3 Bft) O-NO 0,00 h 0,000 mm 0,0 UV-I 0 W/m 2,7 C 2,2 C 22,9 km/h (4 Bft) 98,03 %
01.05.2017 01:00 7,4 C 10,6 C 72 % 1008,3 hPa 0,0 l/m 12,6 km/h (3 Bft) O-NO 0,00 h 0,051 mm 0,0 UV-I 0 W/m 2,6 C 3,2 C 18,2 km/h (3 Bft) 96,95 %
01.05.2017 02:00 6,2 C 10,6 C 76 % 1008,0 hPa 0,0 l/m 6,6 km/h (2 Bft) NO 0,00 h 0,025 mm 0,0 UV-I 0 W/m 2,2 C 5,8 C 9,9 km/h (2 Bft) 98,79 %
01.05.2017 03:00 5,8 C 10,6 C 76 % 1007,6 hPa 0,0 l/m 6,5 km/h (2 Bft) O-NO 0,00 h 0,026 mm 0,0 UV-I 0 W/m 1,9 C 5,5 C 9,2 km/h (2 Bft) 95,13 %
01.05.2017 04:00 5,1 C 10,6 C 78 % 1007,3 hPa 0,0 l/m 6,2 km/h (2 Bft) O-NO 0,00 h 0,025 mm 0,0 UV-I 0 W/m 1,7 C 4,8 C 8,7 km/h (2 Bft) 98,42 %
01.05.2017 05:00 4,7 C 10,4 C 80 % 1007,1 hPa 0,0 l/m 5,8 km/h (2 Bft) O-NO 0,07 h 0,025 mm 0,0 UV-I 9 W/m 1,6 C 4,6 C 7,9 km/h (2 Bft) 97,23 %
01.05.2017 06:00 4,9 C 10,0 C 81 % 1006,9 hPa 0,0 l/m 5,8 km/h (2 Bft) O-NO 1,00 h 0,026 mm 0,0 UV-I 96 W/m 2,0 C 4,5 C 8,7 km/h (2 Bft) 96,38 %
01.05.2017 07:00 7,2 C 10,1 C 76 % 1007,1 hPa 0,0 l/m 5,0 km/h (1 Bft) NO 0,90 h 0,051 mm 0,4 UV-I 222 W/m 3,2 C 7,1 C 7,7 km/h (2 Bft) 93,54 %
01.05.2017 08:00 9,7 C 10,6 C 68 % 1007,4 hPa 0,0 l/m 12,9 km/h (3 Bft) O-NO 1,00 h 0,101 mm 0,9 UV-I 427 W/m 4,1 C 5,8 C 18,9 km/h (3 Bft) 96,01 %
01.05.2017 09:00 12,2 C 10,6 C 62 % 1007,5 hPa 0,0 l/m 12,6 km/h (3 Bft) NO 1,00 h 0,229 mm 1,7 UV-I 559 W/m 5,1 C 8,8 C 17,9 km/h (3 Bft) 94,47 %
01.05.2017 10:00 14,2 C 10,7 C 56 % 1007,8 hPa 0,0 l/m 11,2 km/h (2 Bft) O-NO 1,00 h 0,330 mm 2,8 UV-I 729 W/m 5,5 C 11,7 C 16,8 km/h (3 Bft) 94,84 %
01.05.2017 11:00 15,9 C 11,1 C 53 % 1007,8 hPa 0,0 l/m 7,5 km/h (2 Bft) NO 1,00 h 0,432 mm 3,8 UV-I 821 W/m 6,2 C 15,1 C 12,6 km/h (3 Bft) 97,20 %
01.05.2017 12:00 17,0 C 11,6 C 46 % 1007,8 hPa 0,0 l/m 6,1 km/h (2 Bft) O-NO 1,00 h 0,482 mm 4,5 UV-I 847 W/m 5,2 C 16,5 C 11,1 km/h (2 Bft) 97,93 %
01.05.2017 13:00 17,9 C 11,9 C 44 % 1007,6 hPa 0,0 l/m 4,6 km/h (1 Bft) NO 1,00 h 0,508 mm 4,4 UV-I 840 W/m 5,3 C 17,8 C 8,5 km/h (2 Bft) 97,11 %
01.05.2017 14:00 18,4 C 12,2 C 35 % 1007,6 hPa 0,0 l/m 3,3 km/h (1 Bft) S-SW 1,00 h 0,508 mm 3,4 UV-I 692 W/m 2,7 C 18,3 C 6,6 km/h (2 Bft) 98,46 %
01.05.2017 15:00 18,6 C 12,6 C 40 % 1007,3 hPa 0,0 l/m 2,7 km/h (1 Bft) NW 1,00 h 0,432 mm 2,4 UV-I 576 W/m 4,7 C 18,6 C 5,8 km/h (2 Bft) 96,37 %
01.05.2017 16:00 19,0 C 12,8 C 38 % 1007,2 hPa 0,0 l/m 2,5 km/h (1 Bft) NW 1,00 h 0,356 mm 1,9 UV-I 573 W/m 4,4 C 19,0 C 5,9 km/h (2 Bft) 95,90 %
01.05.2017 17:00 18,6 C 12,8 C 39 % 1007,4 hPa 0,0 l/m 2,1 km/h (1 Bft) N-NO 0,57 h 0,355 mm 0,9 UV-I 314 W/m 4,3 C 18,6 C 4,7 km/h (1 Bft) 95,60 %
01.05.2017 18:00 18,1 C 13,0 C 41 % 1007,3 hPa 0,0 l/m 0,9 km/h (0 Bft) W-NW 0,40 h 0,204 mm 0,4 UV-I 150 W/m 4,5 C 18,1 C 2,5 km/h (1 Bft) 97,21 %
01.05.2017 19:00 14,7 C 13,0 C 59 % 1008,8 hPa 0,0 l/m 13,3 km/h (3 Bft) W-SW 0,00 h 0,101 mm 0,0 UV-I 18 W/m 6,5 C 10,9 C 21,7 km/h (4 Bft) 97,02 %
01.05.2017 20:00 7,6 C 12,8 C 78 % 1011,3 hPa 0,0 l/m 30,0 km/h (5 Bft) W-SW 0,00 h 0,076 mm 0,0 UV-I 5 W/m 4,1 C -2,6 C 45,5 km/h (6 Bft) 97,17 %
01.05.2017 21:00 6,0 C 12,8 C 84 % 1012,9 hPa 1,0 l/m 23,7 km/h (4 Bft) SW 0,00 h 0,051 mm 0,0 UV-I 0 W/m 3,5 C -3,1 C 35,4 km/h (5 Bft) 94,78 %
01.05.2017 22:00 4,5 C 12,8 C 91 % 1013,9 hPa 1,8 l/m 20,0 km/h (4 Bft) W-SW 0,00 h 0,025 mm 0,0 UV-I 0 W/m 3,2 C -3,7 C 33,8 km/h (5 Bft) 96,86 %
01.05.2017 23:00 4,2 C 12,3 C 92 % 1014,3 hPa 0,8 l/m 16,9 km/h (3 Bft) SW 0,00 h 0,025 mm 0,0 UV-I 0 W/m 3,0 C -2,8 C 29,8 km/h (5 Bft) 96,78 %
02.05.2017 00:00 4,2 C 12,2 C 93 % 1014,5 hPa 1,0 l/m 16,0 km/h (3 Bft) W-SW 0,00 h 0,025 mm 0,0 UV-I 0 W/m 3,1 C -2,3 C 26,6 km/h (4 Bft) 97,95 %
02.05.2017 01:00 4,2 C 12,2 C 93 % 1014,7 hPa 1,2 l/m 10,5 km/h (2 Bft) W-SW 0,00 h 0,000 mm 0,0 UV-I 0 W/m 3,3 C 1,0 C 18,1 km/h (3 Bft) 96,57 %
02.05.2017 02:00 4,1 C 12,2 C 93 % 1014,5 hPa 0,6 l/m 10,3 km/h (2 Bft) W-SW 0,00 h 0,000 mm 0,0 UV-I 0 W/m 3,1 C 1,0 C 17,7 km/h (3 Bft) 98,03 %
02.05.2017 03:00 4,2 C 12,2 C 93 % 1014,3 hPa 0,0 l/m 7,1 km/h (2 Bft) W-SW 0,00 h 0,000 mm 0,0 UV-I 0 W/m 3,2 C 3,3 C 12,0 km/h (2 Bft) 98,03 %
02.05.2017 04:00 4,5 C 12,2 C 93 % 1014,2 hPa 0,0 l/m 2,4 km/h (1 Bft) SW 0,00 h 0,000 mm 0,0 UV-I 0 W/m 3,5 C 4,5 C 5,5 km/h (1 Bft) 96,86 %
02.05.2017 05:00 4,5 C 11,8 C 94 % 1014,4 hPa 0,0 l/m 1,2 km/h (1 Bft) O-NO 0,00 h 0,000 mm 0,0 UV-I 6 W/m 3,7 C 4,5 C 3,5 km/h (1 Bft) 97,22 %
02.05.2017 06:00 4,9 C 11,7 C 95 % 1014,9 hPa 0,0 l/m 2,4 km/h (1 Bft) SW 0,00 h 0,000 mm 0,0 UV-I 48 W/m 4,3 C 4,9 C 4,8 km/h (1 Bft) 96,42 %
02.05.2017 07:00 5,9 C 11,7 C 93 % 1015,1 hPa 0,0 l/m 4,7 km/h (1 Bft) S-SW 0,08 h 0,025 mm 0,0 UV-I 99 W/m 4,8 C 6,0 C 8,8 km/h (2 Bft) 96,13 %
02.05.2017 08:00 6,7 C 11,7 C 91 % 1015,4 hPa 0,0 l/m 2,1 km/h (1 Bft) S 0,00 h 0,051 mm 0,4 UV-I 126 W/m 5,4 C 6,7 C 6,3 km/h (2 Bft) 96,71 %
02.05.2017 09:00 8,2 C 12,2 C 87 % 1015,7 hPa 0,0 l/m 2,5 km/h (1 Bft) O-SO 0,58 h 0,051 mm 1,4 UV-I 439 W/m 6,1 C 8,2 C 6,1 km/h (2 Bft) 96,20 %
02.05.2017 10:00 9,9 C 12,2 C 76 % 1016,0 hPa 0,0 l/m 5,9 km/h (2 Bft) W-SW 0,42 h 0,203 mm 1,3 UV-I 316 W/m 6,0 C 9,5 C 13,4 km/h (3 Bft) 95,61 %
02.05.2017 11:00 11,1 C 12,2 C 70 % 1016,0 hPa 0,0 l/m 8,2 km/h (2 Bft) W-SW 0,25 h 0,178 mm 2,4 UV-I 490 W/m 5,8 C 9,9 C 15,8 km/h (3 Bft) 95,25 %
02.05.2017 12:00 13,1 C 12,6 C 60 % 1015,9 hPa 0,0 l/m 8,7 km/h (2 Bft) W-SW 1,00 h 0,305 mm 3,9 UV-I 898 W/m 5,4 C 11,7 C 17,3 km/h (3 Bft) 95,83 %
02.05.2017 13:00 14,2 C 12,9 C 58 % 1015,6 hPa 0,0 l/m 6,7 km/h (2 Bft) W-NW 1,00 h 0,483 mm 4,2 UV-I 936 W/m 5,8 C 13,5 C 14,6 km/h (3 Bft) 95,98 %
02.05.2017 14:00 14,6 C 13,3 C 60 % 1015,6 hPa 0,0 l/m 5,6 km/h (1 Bft) N-NO 0,92 h 0,483 mm 3,5 UV-I 798 W/m 6,9 C 14,3 C 11,4 km/h (2 Bft) 94,96 %
02.05.2017 15:00 15,3 C 13,8 C 55 % 1015,5 hPa 0,0 l/m 6,7 km/h (2 Bft) O-NO 1,00 h 0,432 mm 2,9 UV-I 756 W/m 6,4 C 14,8 C 13,2 km/h (3 Bft) 95,61 %
02.05.2017 16:00 15,8 C 13,9 C 53 % 1015,3 hPa 0,0 l/m 6,6 km/h (2 Bft) O-NO 1,00 h 0,432 mm 1,9 UV-I 577 W/m 6,2 C 15,3 C 14,5 km/h (3 Bft) 97,51 %
02.05.2017 17:00 15,7 C 14,0 C 54 % 1015,1 hPa 0,0 l/m 11,7 km/h (2 Bft) O-NO 1,00 h 0,356 mm 1,0 UV-I 408 W/m 6,4 C 13,3 C 20,0 km/h (4 Bft) 97,08 %
02.05.2017 18:00 15,3 C 14,4 C 56 % 1015,1 hPa 0,0 l/m 11,0 km/h (2 Bft) O-NO 1,00 h 0,279 mm 0,5 UV-I 227 W/m 6,5 C 13,1 C 19,3 km/h (3 Bft) 92,91 %
02.05.2017 19:00 14,2 C 14,1 C 60 % 1015,3 hPa 0,0 l/m 9,7 km/h (2 Bft) NO 1,00 h 0,178 mm 0,0 UV-I 80 W/m 6,5 C 12,5 C 16,5 km/h (3 Bft) 94,95 %
02.05.2017 20:00 12,1 C 13,9 C 68 % 1015,7 hPa 0,0 l/m 4,3 km/h (1 Bft) NO 0,17 h 0,076 mm 0,0 UV-I 12 W/m 6,5 C 12,1 C 7,0 km/h (2 Bft) 96,86 %
02.05.2017 21:00 11,2 C 13,9 C 71 % 1015,8 hPa 0,0 l/m 5,6 km/h (1 Bft) NO 0,00 h 0,025 mm 0,0 UV-I 0 W/m 6,2 C 11,2 C 8,6 km/h (2 Bft) 95,83 %
02.05.2017 22:00 10,9 C 13,9 C 72 % 1015,9 hPa 0,0 l/m 6,9 km/h (2 Bft) O-NO 0,00 h 0,025 mm 0,0 UV-I 0 W/m 6,0 C 10,6 C 11,3 km/h (2 Bft) 95,10 %
02.05.2017 23:00 9,9 C 13,9 C 75 % 1016,0 hPa 0,0 l/m 6,3 km/h (2 Bft) O-NO 0,00 h 0,025 mm 0,0 UV-I 0 W/m 5,7 C 9,7 C 10,3 km/h (2 Bft) 97,15 %
03.05.2017 00:00 9,7 C 13,6 C 78 % 1015,8 hPa 0,0 l/m 12,1 km/h (2 Bft) O-NO 0,00 h 0,025 mm 0,0 UV-I 0 W/m 6,1 C 6,3 C 19,8 km/h (4 Bft) 96,20 %
03.05.2017 01:00 9,5 C 13,3 C 81 % 1015,7 hPa 0,0 l/m 10,6 km/h (2 Bft) O-NO 0,00 h 0,025 mm 0,0 UV-I 0 W/m 6,4 C 6,8 C 17,3 km/h (3 Bft) 97,66 %
03.05.2017 02:00 9,2 C 13,3 C 82 % 1015,5 hPa 0,0 l/m 12,2 km/h (2 Bft) O-NO 0,00 h 0,025 mm 0,0 UV-I 0 W/m 6,3 C 5,7 C 20,5 km/h (4 Bft) 97,22 %
03.05.2017 03:00 9,3 C 13,3 C 81 % 1015,4 hPa 0,0 l/m 17,7 km/h (3 Bft) O-NO 0,00 h 0,025 mm 0,0 UV-I 0 W/m 6,2 C 3,3 C 28,2 km/h (4 Bft) 98,17 %
03.05.2017 04:00 9,1 C 13,0 C 81 % 1015,2 hPa 0,0 l/m 17,0 km/h (3 Bft) O-NO 0,00 h 0,051 mm 0,0 UV-I 0 W/m 6,0 C 3,3 C 26,3 km/h (4 Bft) 94,59 %
03.05.2017 05:00 9,1 C 12,8 C 80 % 1014,9 hPa 0,0 l/m 18,4 km/h (3 Bft) O-NO 0,08 h 0,025 mm 0,0 UV-I 8 W/m 6,0 C 2,8 C 27,6 km/h (4 Bft) 97,00 %
03.05.2017 06:00 9,2 C 12,8 C 81 % 1014,9 hPa 0,0 l/m 17,7 km/h (3 Bft) O-NO 0,58 h 0,051 mm 0,0 UV-I 67 W/m 6,0 C 3,1 C 27,4 km/h (4 Bft) 95,25 %
03.05.2017 07:00 9,9 C 12,8 C 79 % 1015,0 hPa 0,0 l/m 18,8 km/h (3 Bft) O-NO 1,00 h 0,076 mm 0,4 UV-I 198 W/m 6,5 C 3,6 C 28,3 km/h (4 Bft) 91,89 %
03.05.2017 08:00 11,5 C 12,8 C 76 % 1015,0 hPa 0,0 l/m 15,0 km/h (3 Bft) O-NO 0,92 h 0,127 mm 0,7 UV-I 285 W/m 7,4 C 6,9 C 23,7 km/h (4 Bft) 96,64 %
03.05.2017 09:00 13,7 C 12,9 C 69 % 1015,0 hPa 0,0 l/m 14,8 km/h (3 Bft) O-NO 1,00 h 0,178 mm 1,7 UV-I 573 W/m 8,1 C 9,8 C 22,8 km/h (4 Bft) 92,69 %
03.05.2017 10:00 15,5 C 13,3 C 64 % 1015,1 hPa 0,0 l/m 15,0 km/h (3 Bft) O-NO 1,00 h 0,356 mm 2,8 UV-I 735 W/m 8,6 C 11,8 C 24,5 km/h (4 Bft) 95,47 %
03.05.2017 11:00 16,9 C 13,4 C 60 % 1015,0 hPa 0,0 l/m 8,1 km/h (2 Bft) O-NO 1,00 h 0,457 mm 3,6 UV-I 770 W/m 9,0 C 16,0 C 16,9 km/h (3 Bft) 95,54 %
03.05.2017 12:00 17,4 C 13,8 C 61 % 1014,8 hPa 0,0 l/m 4,4 km/h (1 Bft) W-SW 0,92 h 0,457 mm 3,8 UV-I 706 W/m 9,9 C 17,3 C 10,7 km/h (2 Bft) 96,42 %
03.05.2017 13:00 17,4 C 14,0 C 63 % 1014,4 hPa 0,0 l/m 5,5 km/h (1 Bft) SW 0,75 h 0,381 mm 2,9 UV-I 508 W/m 10,3 C 17,2 C 11,4 km/h (2 Bft) 96,86 %
03.05.2017 14:00 17,1 C 14,4 C 66 % 1014,2 hPa 0,0 l/m 7,0 km/h (2 Bft) SW 0,42 h 0,305 mm 2,1 UV-I 413 W/m 10,5 C 16,6 C 12,6 km/h (3 Bft) 98,83 %
03.05.2017 15:00 17,3 C 14,4 C 64 % 1013,8 hPa 0,0 l/m 7,1 km/h (2 Bft) O-NO 0,92 h 0,254 mm 2,0 UV-I 451 W/m 10,3 C 16,5 C 13,4 km/h (3 Bft) 97,66 %
03.05.2017 16:00 17,0 C 14,4 C 62 % 1013,6 hPa 0,0 l/m 13,4 km/h (3 Bft) O-NO 0,67 h 0,279 mm 1,5 UV-I 394 W/m 9,6 C 14,1 C 20,6 km/h (4 Bft) 98,83 %
03.05.2017 17:00 17,0 C 14,5 C 62 % 1013,3 hPa 0,0 l/m 14,3 km/h (3 Bft) O-NO 1,05 h 0,279 mm 0,9 UV-I 418 W/m 9,6 C 13,9 C 21,1 km/h (4 Bft) 97,61 %
03.05.2017 18:00 16,2 C 15,0 C 67 % 1013,1 hPa 0,0 l/m 16,3 km/h (3 Bft) O-NO 1,00 h 0,282 mm 0,5 UV-I 238 W/m 9,9 C 12,3 C 22,4 km/h (4 Bft) 95,19 %
03.05.2017 19:00 14,7 C 15,0 C 71 % 1013,2 hPa 0,0 l/m 11,1 km/h (2 Bft) O-NO 0,70 h 0,203 mm 0,0 UV-I 83 W/m 9,4 C 12,5 C 16,6 km/h (3 Bft) 95,85 %
03.05.2017 20:00 13,3 C 14,4 C 72 % 1013,7 hPa 0,0 l/m 11,6 km/h (2 Bft) O-NO 0,17 h 0,076 mm 0,0 UV-I 12 W/m 8,4 C 10,6 C 17,3 km/h (3 Bft) 97,03 %
03.05.2017 21:00 12,0 C 14,4 C 77 % 1014,2 hPa 0,0 l/m 5,5 km/h (1 Bft) O-NO 0,00 h 0,051 mm 0,0 UV-I 0 W/m 8,2 C 11,2 C 9,4 km/h (2 Bft) 97,35 %
03.05.2017 22:00 11,4 C 14,4 C 82 % 1014,6 hPa 0,0 l/m 2,1 km/h (1 Bft) O 0,00 h 0,025 mm 0,0 UV-I 0 W/m 8,4 C 11,4 C 4,5 km/h (1 Bft) 96,78 %
03.05.2017 23:00 11,0 C 14,4 C 87 % 1014,5 hPa 0,0 l/m 4,3 km/h (1 Bft) S-SO 0,00 h 0,000 mm 0,0 UV-I 0 W/m 8,8 C 10,8 C 7,2 km/h (2 Bft) 97,48 %
04.05.2017 00:00 10,6 C 14,4 C 91 % 1014,3 hPa 0,0 l/m 3,4 km/h (1 Bft) S-SO 0,00 h 0,000 mm 0,0 UV-I 0 W/m 9,2 C 10,6 C 6,1 km/h (2 Bft) 98,35 %
04.05.2017 01:00 9,4 C 14,4 C 93 % 1014,2 hPa 0,0 l/m 3,2 km/h (1 Bft) O-NO 0,00 h 0,000 mm 0,0 UV-I 0 W/m 8,3 C 9,4 C 5,5 km/h (1 Bft) 97,85 %
04.05.2017 02:00 8,3 C 14,4 C 95 % 1014,1 hPa 0,0 l/m 2,5 km/h (1 Bft) S 0,00 h 0,000 mm 0,0 UV-I 0 W/m 7,5 C 8,3 C 4,5 km/h (1 Bft) 96,61 %
04.05.2017 03:00 7,5 C 14,1 C 95 % 1014,1 hPa 0,0 l/m 1,7 km/h (1 Bft) O-SO 0,00 h 0,000 mm 0,0 UV-I 0 W/m 6,8 C 7,5 C 2,8 km/h (1 Bft) 97,70 %
04.05.2017 04:00 6,7 C 13,9 C 95 % 1013,9 hPa 0,0 l/m 0,9 km/h (0 Bft) O-SO 0,00 h 0,000 mm 0,0 UV-I 0 W/m 6,0 C 6,7 C 1,8 km/h (1 Bft) 98,73 %
04.05.2017 05:00 6,9 C 13,9 C 96 % 1014,1 hPa 0,0 l/m 0,5 km/h (0 Bft) O 0,00 h 0,000 mm 0,0 UV-I 7 W/m 6,3 C 6,9 C 1,1 km/h (1 Bft) 96,47 %
04.05.2017 06:00 6,6 C 13,9 C 96 % 1014,1 hPa 0,0 l/m 0,1 km/h (0 Bft) O 0,30 h 0,000 mm 0,0 UV-I 57 W/m 6,0 C 6,6 C 0,3 km/h (0 Bft) 97,33 %
04.05.2017 07:00 8,2 C 13,9 C 96 % 1013,9 hPa 0,0 l/m 1,7 km/h (1 Bft) O-NO 0,90 h 0,025 mm 0,4 UV-I 187 W/m 7,5 C 8,2 C 3,1 km/h (1 Bft) 97,27 %
04.05.2017 08:00 10,1 C 13,9 C 90 % 1013,7 hPa 0,0 l/m 4,5 km/h (1 Bft) NO 0,93 h 0,077 mm 0,8 UV-I 372 W/m 8,6 C 10,1 C 6,8 km/h (2 Bft) 96,87 %
04.05.2017 09:00 11,9 C 14,3 C 84 % 1013,1 hPa 0,0 l/m 4,4 km/h (1 Bft) NO 1,00 h 0,177 mm 1,7 UV-I 579 W/m 9,2 C 11,7 C 7,4 km/h (2 Bft) 95,29 %
04.05.2017 10:00 13,4 C 14,4 C 78 % 1012,8 hPa 0,0 l/m 2,5 km/h (1 Bft) N-NO 0,93 h 0,280 mm 2,6 UV-I 688 W/m 9,7 C 13,4 C 5,4 km/h (1 Bft) 98,57 %
04.05.2017 11:00 14,3 C 14,4 C 73 % 1012,7 hPa 0,0 l/m 1,7 km/h (1 Bft) NW 0,90 h 0,355 mm 2,6 UV-I 540 W/m 9,6 C 14,3 C 4,2 km/h (1 Bft) 97,40 %
04.05.2017 12:00 15,2 C 14,7 C 70 % 1012,3 hPa 0,0 l/m 2,2 km/h (1 Bft) NO 0,73 h 0,280 mm 3,0 UV-I 589 W/m 9,8 C 15,2 C 5,1 km/h (1 Bft) 96,96 %
04.05.2017 13:00 16,2 C 15,0 C 65 % 1011,7 hPa 0,0 l/m 2,6 km/h (1 Bft) N-NO 0,70 h 0,330 mm 3,5 UV-I 676 W/m 9,6 C 16,2 C 5,2 km/h (1 Bft) 95,18 %
04.05.2017 14:00 16,7 C 15,3 C 65 % 1011,0 hPa 0,0 l/m 4,8 km/h (1 Bft) O-NO 0,60 h 0,356 mm 2,8 UV-I 558 W/m 10,0 C 16,6 C 9,3 km/h (2 Bft) 96,08 %
04.05.2017 15:00 17,7 C 15,6 C 61 % 1010,2 hPa 0,0 l/m 6,6 km/h (2 Bft) O-NO 0,93 h 0,330 mm 2,7 UV-I 617 W/m 10,0 C 17,2 C 12,3 km/h (3 Bft) 97,61 %
04.05.2017 16:00 18,1 C 15,6 C 58 % 1009,7 hPa 0,0 l/m 8,5 km/h (2 Bft) O 0,57 h 0,355 mm 1,5 UV-I 416 W/m 9,8 C 17,0 C 13,5 km/h (3 Bft) 99,05 %
04.05.2017 17:00 16,1 C 15,6 C 67 % 1009,4 hPa 0,0 l/m 13,4 km/h (3 Bft) O 0,00 h 0,280 mm 0,4 UV-I 72 W/m 9,9 C 13,1 C 19,9 km/h (4 Bft) 97,79 %
04.05.2017 18:00 14,4 C 15,6 C 78 % 1009,3 hPa 0,0 l/m 8,7 km/h (2 Bft) O 0,00 h 0,101 mm 0,0 UV-I 40 W/m 10,6 C 12,9 C 14,0 km/h (3 Bft) 97,22 %
04.05.2017 19:00 13,9 C 15,6 C 79 % 1010,1 hPa 0,0 l/m 7,1 km/h (2 Bft) NO 0,00 h 0,051 mm 0,0 UV-I 20 W/m 10,4 C 12,8 C 11,4 km/h (2 Bft) 95,95 %
04.05.2017 20:00 12,6 C 15,6 C 82 % 1011,0 hPa 0,2 l/m 3,1 km/h (1 Bft) N 0,00 h 0,026 mm 0,0 UV-I 5 W/m 9,5 C 12,3 C 5,9 km/h (2 Bft) 99,08 %
04.05.2017 21:00 11,1 C 15,6 C 85 % 1012,7 hPa 2,0 l/m 11,6 km/h (2 Bft) W-SW 0,00 h 0,000 mm 0,0 UV-I 0 W/m 8,6 C 8,1 C 17,9 km/h (3 Bft) 97,07 %
04.05.2017 22:00 9,5 C 15,6 C 94 % 1013,5 hPa 5,0 l/m 9,8 km/h (2 Bft) W-SW 0,00 h 0,025 mm 0,0 UV-I 0 W/m 8,6 C 7,3 C 14,7 km/h (3 Bft) 97,46 %
04.05.2017 23:00 9,4 C 15,4 C 94 % 1014,1 hPa 0,4 l/m 7,2 km/h (2 Bft) S-SW 0,00 h 0,000 mm 0,0 UV-I 0 W/m 8,6 C 8,7 C 11,3 km/h (2 Bft) 95,73 %
05.05.2017 00:00 9,6 C 15,0 C 93 % 1014,2 hPa 0,0 l/m 8,6 km/h (2 Bft) SW 0,00 h 0,000 mm 0,0 UV-I 0 W/m 8,6 C 8,1 C 13,8 km/h (3 Bft) 98,31 %
05.05.2017 01:00 9,4 C 15,0 C 92 % 1014,3 hPa 0,0 l/m 10,3 km/h (2 Bft) SW 0,00 h 0,000 mm 0,0 UV-I 0 W/m 8,2 C 6,9 C 16,4 km/h (3 Bft) 97,28 %
05.05.2017 02:00 9,2 C 15,0 C 91 % 1014,4 hPa 0,0 l/m 13,2 km/h (3 Bft) SW 0,00 h 0,000 mm 0,0 UV-I 0 W/m 7,8 C 5,0 C 20,7 km/h (4 Bft) 96,82 %
05.05.2017 03:00 9,1 C 15,0 C 89 % 1014,6 hPa 0,0 l/m 11,8 km/h (2 Bft) W-SW 0,00 h 0,025 mm 0,0 UV-I 0 W/m 7,4 C 5,6 C 17,5 km/h (3 Bft) 95,85 %
05.05.2017 04:00 8,9 C 15,0 C 90 % 1014,9 hPa 0,0 l/m 8,5 km/h (2 Bft) SW 0,00 h 0,026 mm 0,0 UV-I 0 W/m 7,4 C 7,3 C 13,3 km/h (3 Bft) 98,28 %
05.05.2017 05:00 8,8 C 14,7 C 91 % 1014,9 hPa 0,0 l/m 8,5 km/h (2 Bft) SW 0,00 h 0,000 mm 0,0 UV-I 6 W/m 7,4 C 7,3 C 13,4 km/h (3 Bft) 96,79 %
05.05.2017 06:00 8,8 C 14,4 C 89 % 1015,2 hPa 0,0 l/m 10,3 km/h (2 Bft) SW 0,00 h 0,000 mm 0,0 UV-I 32 W/m 7,1 C 6,2 C 16,0 km/h (3 Bft) 96,34 %
05.05.2017 07:00 9,1 C 14,4 C 88 % 1015,5 hPa 0,0 l/m 10,9 km/h (2 Bft) W-SW 0,00 h 0,025 mm 0,0 UV-I 57 W/m 7,2 C 6,1 C 16,9 km/h (3 Bft) 95,12 %
05.05.2017 08:00 9,3 C 14,4 C 87 % 1016,4 hPa 0,0 l/m 10,1 km/h (2 Bft) W-SW 0,00 h 0,051 mm 0,0 UV-I 48 W/m 7,2 C 6,8 C 16,1 km/h (3 Bft) 97,57 %
05.05.2017 09:00 10,1 C 14,4 C 84 % 1016,7 hPa 0,0 l/m 12,2 km/h (3 Bft) W-SW 0,07 h 0,025 mm 0,8 UV-I 210 W/m 7,5 C 6,6 C 18,6 km/h (3 Bft) 96,13 %
05.05.2017 10:00 11,4 C 14,4 C 78 % 1016,6 hPa 0,0 l/m 16,2 km/h (3 Bft) W-SW 0,43 h 0,127 mm 1,7 UV-I 405 W/m 7,7 C 6,4 C 26,1 km/h (4 Bft) 95,75 %
05.05.2017 11:00 10,9 C 14,4 C 80 % 1017,1 hPa 0,0 l/m 12,8 km/h (3 Bft) W-SW 0,00 h 0,229 mm 0,7 UV-I 154 W/m 7,6 C 7,3 C 19,5 km/h (3 Bft) 94,37 %
05.05.2017 12:00 11,4 C 14,4 C 81 % 1017,3 hPa 0,0 l/m 14,9 km/h (3 Bft) W-SW 0,00 h 0,102 mm 1,5 UV-I 289 W/m 8,2 C 7,0 C 23,3 km/h (4 Bft) 98,17 %
05.05.2017 13:00 12,2 C 14,8 C 79 % 1017,4 hPa 0,0 l/m 15,1 km/h (3 Bft) SW 0,40 h 0,177 mm 2,3 UV-I 450 W/m 8,8 C 7,9 C 23,6 km/h (4 Bft) 97,38 %
05.05.2017 14:00 12,0 C 15,0 C 80 % 1017,6 hPa 0,0 l/m 12,4 km/h (3 Bft) SW 0,00 h 0,254 mm 1,0 UV-I 211 W/m 8,7 C 8,7 C 19,5 km/h (3 Bft) 96,44 %
05.05.2017 15:00 12,7 C 15,0 C 78 % 1017,5 hPa 0,0 l/m 10,4 km/h (2 Bft) W-SW 0,07 h 0,127 mm 1,2 UV-I 273 W/m 9,0 C 10,4 C 16,4 km/h (3 Bft) 95,15 %
05.05.2017 16:00 12,6 C 15,0 C 81 % 1017,4 hPa 0,0 l/m 8,0 km/h (2 Bft) W-SW 0,00 h 0,153 mm 0,9 UV-I 247 W/m 9,4 C 11,6 C 13,8 km/h (3 Bft) 97,96 %
05.05.2017 17:00 13,0 C 15,0 C 78 % 1017,4 hPa 0,0 l/m 6,6 km/h (2 Bft) W-SW 0,83 h 0,127 mm 0,8 UV-I 319 W/m 9,3 C 12,5 C 11,4 km/h (2 Bft) 97,51 %
05.05.2017 18:00 13,1 C 15,0 C 79 % 1017,2 hPa 0,0 l/m 3,6 km/h (1 Bft) W 0,80 h 0,178 mm 0,5 UV-I 181 W/m 9,6 C 13,0 C 7,2 km/h (2 Bft) 95,64 %
05.05.2017 19:00 12,9 C 15,0 C 81 % 1017,3 hPa 0,0 l/m 2,1 km/h (1 Bft) W-SW 1,00 h 0,101 mm 0,0 UV-I 97 W/m 9,8 C 12,9 C 3,9 km/h (1 Bft) 95,80 %
05.05.2017 20:00 11,6 C 15,0 C 87 % 1017,6 hPa 0,0 l/m 0,9 km/h (0 Bft) W-SW 0,20 h 0,051 mm 0,0 UV-I 16 W/m 9,6 C 11,6 C 2,1 km/h (1 Bft) 94,58 %
05.05.2017 21:00 10,0 C 15,0 C 92 % 1017,8 hPa 0,0 l/m 0,5 km/h (0 Bft) W-SW 0,00 h 0,000 mm 0,0 UV-I 0 W/m 8,7 C 10,0 C 1,3 km/h (1 Bft) 97,39 %
05.05.2017 22:00 8,7 C 15,0 C 93 % 1017,7 hPa 0,0 l/m 1,1 km/h (0 Bft) W-SW 0,00 h 0,000 mm 0,0 UV-I 0 W/m 7,6 C 8,7 C 2,0 km/h (1 Bft) 96,73 %
05.05.2017 23:00 8,0 C 15,0 C 94 % 1017,5 hPa 0,0 l/m 0,9 km/h (0 Bft) W-SW 0,00 h 0,000 mm 0,0 UV-I 0 W/m 7,1 C 8,0 C 1,7 km/h (1 Bft) 95,84 %
06.05.2017 00:00 7,8 C 14,4 C 95 % 1017,2 hPa 0,0 l/m 1,1 km/h (0 Bft) W-SW 0,00 h 0,000 mm 0,0 UV-I 0 W/m 7,0 C 7,8 C 2,1 km/h (1 Bft) 97,51 %
06.05.2017 01:00 7,2 C 14,4 C 95 % 1016,6 hPa 0,0 l/m 0,8 km/h (0 Bft) W-SW 0,00 h 0,000 mm 0,0 UV-I 0 W/m 6,5 C 7,2 C 1,5 km/h (1 Bft) 97,43 %
06.05.2017 02:00 6,4 C 14,4 C 96 % 1015,8 hPa 0,0 l/m 2,0 km/h (1 Bft) O-NO 0,00 h 0,000 mm 0,0 UV-I 0 W/m 5,8 C 6,4 C 3,7 km/h (1 Bft) 97,65 %
06.05.2017 03:00 5,7 C 14,4 C 96 % 1015,3 hPa 0,0 l/m 0,5 km/h (0 Bft) O-NO 0,00 h 0,000 mm 0,0 UV-I 0 W/m 5,1 C 5,7 C 1,4 km/h (1 Bft) 95,75 %
06.05.2017 04:00 5,3 C 14,4 C 96 % 1014,9 hPa 0,0 l/m 2,3 km/h (1 Bft) O-NO 0,00 h 0,000 mm 0,0 UV-I 0 W/m 4,8 C 5,3 C 4,0 km/h (1 Bft) 98,41 %
06.05.2017 05:00 5,3 C 14,3 C 97 % 1014,6 hPa 0,0 l/m 1,0 km/h (0 Bft) O-NO 0,03 h 0,000 mm 0,0 UV-I 8 W/m 4,9 C 5,3 C 2,2 km/h (1 Bft) 96,30 %
06.05.2017 06:00 6,2 C 13,9 C 97 % 1014,5 hPa 0,2 l/m 4,1 km/h (1 Bft) O-NO 0,00 h 0,000 mm 0,0 UV-I 39 W/m 5,7 C 6,0 C 6,7 km/h (2 Bft) 96,14 %
06.05.2017 07:00 7,3 C 13,9 C 97 % 1014,4 hPa 0,0 l/m 10,0 km/h (2 Bft) O-NO 0,00 h 0,025 mm 0,0 UV-I 108 W/m 6,9 C 4,6 C 14,8 km/h (3 Bft) 95,31 %
06.05.2017 08:00 8,6 C 14,1 C 97 % 1014,1 hPa 0,0 l/m 10,9 km/h (2 Bft) O-NO 0,67 h 0,051 mm 0,9 UV-I 341 W/m 8,2 C 5,7 C 16,4 km/h (3 Bft) 97,55 %
06.05.2017 09:00 11,5 C 14,4 C 87 % 1013,4 hPa 0,0 l/m 15,8 km/h (3 Bft) O-NO 1,00 h 0,153 mm 1,9 UV-I 594 W/m 9,4 C 6,7 C 22,6 km/h (4 Bft) 94,56 %
06.05.2017 10:00 14,1 C 14,4 C 78 % 1012,6 hPa 0,0 l/m 17,2 km/h (3 Bft) O-NO 1,00 h 0,304 mm 3,0 UV-I 737 W/m 10,4 C 9,5 C 24,7 km/h (4 Bft) 95,93 %
06.05.2017 11:00 16,2 C 14,4 C 70 % 1011,6 hPa 0,0 l/m 16,6 km/h (3 Bft) NO 1,00 h 0,432 mm 4,0 UV-I 838 W/m 10,7 C 12,2 C 23,9 km/h (4 Bft) 96,60 %
06.05.2017 12:00 17,7 C 14,4 C 65 % 1010,7 hPa 0,0 l/m 14,6 km/h (3 Bft) O-NO 1,00 h 0,508 mm 4,7 UV-I 887 W/m 11,0 C 14,7 C 21,8 km/h (4 Bft) 97,35 %
06.05.2017 13:00 19,1 C 14,4 C 65 % 1009,3 hPa 0,0 l/m 13,6 km/h (3 Bft) NO 1,00 h 0,559 mm 4,9 UV-I 884 W/m 12,3 C 16,6 C 21,2 km/h (4 Bft) 95,86 %
06.05.2017 14:00 20,1 C 15,4 C 58 % 1008,3 hPa 0,0 l/m 15,3 km/h (3 Bft) NO 1,00 h 0,559 mm 4,3 UV-I 824 W/m 11,6 C 17,4 C 22,7 km/h (4 Bft) 94,57 %
06.05.2017 15:00 20,9 C 16,5 C 56 % 1007,6 hPa 0,0 l/m 15,4 km/h (3 Bft) NO 1,00 h 0,559 mm 3,0 UV-I 663 W/m 11,9 C 18,3 C 21,9 km/h (4 Bft) 96,91 %
06.05.2017 16:00 20,6 C 16,7 C 57 % 1006,4 hPa 0,0 l/m 18,0 km/h (3 Bft) O-NO 1,00 h 0,482 mm 1,9 UV-I 508 W/m 11,9 C 17,4 C 26,6 km/h (4 Bft) 95,05 %
06.05.2017 17:00 20,7 C 16,7 C 57 % 1005,6 hPa 0,0 l/m 18,6 km/h (3 Bft) O-NO 1,00 h 0,407 mm 1,1 UV-I 408 W/m 11,9 C 17,4 C 26,2 km/h (4 Bft) 96,54 %
06.05.2017 18:00 20,1 C 16,7 C 59 % 1005,0 hPa 0,0 l/m 16,4 km/h (3 Bft) O-NO 0,70 h 0,355 mm 0,6 UV-I 195 W/m 11,7 C 17,1 C 23,5 km/h (4 Bft) 94,52 %
06.05.2017 19:00 18,6 C 16,7 C 64 % 1004,4 hPa 0,0 l/m 10,7 km/h (2 Bft) O-NO 0,13 h 0,203 mm 0,0 UV-I 53 W/m 11,6 C 17,1 C 15,6 km/h (3 Bft) 95,31 %
06.05.2017 20:00 17,2 C 16,7 C 69 % 1004,2 hPa 0,0 l/m 6,7 km/h (2 Bft) NO 0,23 h 0,077 mm 0,0 UV-I 12 W/m 11,4 C 16,9 C 9,9 km/h (2 Bft) 96,68 %
06.05.2017 21:00 15,8 C 16,7 C 74 % 1004,2 hPa 0,0 l/m 6,4 km/h (2 Bft) N-NO 0,00 h 0,025 mm 0,0 UV-I 0 W/m 11,1 C 15,5 C 10,7 km/h (2 Bft) 97,37 %
06.05.2017 22:00 15,1 C 16,7 C 75 % 1004,4 hPa 0,0 l/m 5,6 km/h (1 Bft) N-NO 0,00 h 0,025 mm 0,0 UV-I 0 W/m 10,6 C 14,7 C 9,4 km/h (2 Bft) 95,65 %
06.05.2017 23:00 14,5 C 16,7 C 77 % 1004,6 hPa 0,0 l/m 0,6 km/h (0 Bft) N-NO 0,00 h 0,026 mm 0,0 UV-I 0 W/m 10,4 C 14,5 C 2,3 km/h (1 Bft) 95,78 %
07.05.2017 00:00 13,9 C 16,7 C 78 % 1005,0 hPa 0,0 l/m 1,1 km/h (0 Bft) N-NO 0,00 h 0,000 mm 0,0 UV-I 0 W/m 10,1 C 13,9 C 2,7 km/h (1 Bft) 94,46 %
07.05.2017 01:00 12,7 C 16,7 C 83 % 1005,4 hPa 0,0 l/m 3,1 km/h (1 Bft) SW 0,00 h 0,000 mm 0,0 UV-I 0 W/m 9,9 C 12,7 C 4,9 km/h (1 Bft) 97,51 %
07.05.2017 02:00 12,3 C 16,2 C 87 % 1006,0 hPa 0,0 l/m 8,9 km/h (2 Bft) SW 0,00 h 0,000 mm 0,0 UV-I 0 W/m 10,1 C 10,7 C 13,2 km/h (3 Bft) 96,89 %
07.05.2017 03:00 12,5 C 16,1 C 86 % 1006,6 hPa 0,0 l/m 12,5 km/h (3 Bft) W-SW 0,00 h 0,025 mm 0,0 UV-I 0 W/m 10,2 C 9,3 C 18,6 km/h (3 Bft) 95,36 %
07.05.2017 04:00 12,6 C 16,1 C 83 % 1007,4 hPa 0,0 l/m 17,1 km/h (3 Bft) W-SW 0,00 h 0,026 mm 0,0 UV-I 0 W/m 9,9 C 7,6 C 26,0 km/h (4 Bft) 97,86 %
07.05.2017 05:00 12,6 C 16,1 C 83 % 1008,1 hPa 0,0 l/m 16,9 km/h (3 Bft) W-SW 0,03 h 0,025 mm 0,0 UV-I 7 W/m 9,8 C 7,6 C 25,7 km/h (4 Bft) 97,11 %
07.05.2017 06:00 12,3 C 16,1 C 83 % 1008,6 hPa 0,0 l/m 18,7 km/h (3 Bft) W-SW 0,00 h 0,026 mm 0,0 UV-I 17 W/m 9,5 C 6,6 C 28,8 km/h (5 Bft) 97,21 %
07.05.2017 07:00 12,1 C 15,9 C 83 % 1009,4 hPa 0,0 l/m 17,4 km/h (3 Bft) W-SW 0,00 h 0,050 mm 0,0 UV-I 37 W/m 9,3 C 6,9 C 25,8 km/h (4 Bft) 95,05 %
07.05.2017 08:00 12,1 C 15,6 C 84 % 1010,0 hPa 0,0 l/m 16,9 km/h (3 Bft) W-SW 0,00 h 0,051 mm 0,0 UV-I 37 W/m 9,4 C 7,1 C 25,3 km/h (4 Bft) 96,96 %
07.05.2017 09:00 11,6 C 15,6 C 87 % 1010,5 hPa 0,0 l/m 16,8 km/h (3 Bft) SW 0,00 h 0,051 mm 0,0 UV-I 61 W/m 9,5 C 6,4 C 25,0 km/h (4 Bft) 96,92 %
07.05.2017 10:00 11,2 C 15,6 C 90 % 1010,9 hPa 0,0 l/m 17,0 km/h (3 Bft) W-SW 0,00 h 0,051 mm 0,4 UV-I 86 W/m 9,6 C 5,9 C 26,1 km/h (4 Bft) 97,30 %
07.05.2017 11:00 11,3 C 15,6 C 89 % 1011,3 hPa 0,2 l/m 17,2 km/h (3 Bft) SW 0,00 h 0,051 mm 0,5 UV-I 87 W/m 9,7 C 6,0 C 26,9 km/h (4 Bft) 96,46 %
07.05.2017 12:00 12,0 C 15,6 C 88 % 1011,5 hPa 0,0 l/m 13,7 km/h (3 Bft) SW 0,00 h 0,050 mm 0,8 UV-I 134 W/m 10,1 C 8,1 C 21,1 km/h (4 Bft) 98,37 %
07.05.2017 13:00 13,2 C 15,6 C 83 % 1011,2 hPa 0,0 l/m 17,4 km/h (3 Bft) W-SW 0,03 h 0,077 mm 1,6 UV-I 281 W/m 10,4 C 8,3 C 26,4 km/h (4 Bft) 98,29 %
07.05.2017 14:00 14,0 C 15,6 C 80 % 1011,0 hPa 0,0 l/m 19,1 km/h (3 Bft) SW 0,10 h 0,177 mm 1,5 UV-I 310 W/m 10,5 C 8,7 C 30,0 km/h (5 Bft) 98,36 %
07.05.2017 15:00 14,7 C 15,6 C 77 % 1010,9 hPa 0,0 l/m 19,7 km/h (3 Bft) SW 0,47 h 0,204 mm 1,9 UV-I 419 W/m 10,8 C 9,5 C 31,2 km/h (5 Bft) 96,67 %
07.05.2017 16:00 14,9 C 16,1 C 76 % 1010,7 hPa 0,0 l/m 22,4 km/h (4 Bft) SW 0,67 h 0,279 mm 1,4 UV-I 415 W/m 10,8 C 9,0 C 34,9 km/h (5 Bft) 97,30 %
07.05.2017 17:00 15,2 C 16,1 C 75 % 1010,3 hPa 0,0 l/m 19,8 km/h (3 Bft) W-SW 0,80 h 0,279 mm 0,9 UV-I 344 W/m 10,7 C 10,1 C 29,8 km/h (5 Bft) 97,04 %
07.05.2017 18:00 14,5 C 16,1 C 76 % 1010,1 hPa 0,0 l/m 20,5 km/h (4 Bft) SW 0,20 h 0,229 mm 0,5 UV-I 148 W/m 10,4 C 9,1 C 31,1 km/h (5 Bft) 95,19 %
07.05.2017 19:00 13,6 C 16,1 C 80 % 1010,6 hPa 0,0 l/m 18,0 km/h (3 Bft) W-SW 0,00 h 0,127 mm 0,0 UV-I 35 W/m 10,2 C 8,6 C 28,3 km/h (4 Bft) 96,99 %
07.05.2017 20:00 12,8 C 16,1 C 84 % 1011,1 hPa 0,0 l/m 17,0 km/h (3 Bft) SW 0,00 h 0,051 mm 0,0 UV-I 6 W/m 10,2 C 7,8 C 25,6 km/h (4 Bft) 95,06 %
07.05.2017 21:00 12,5 C 15,8 C 86 % 1011,7 hPa 0,0 l/m 13,9 km/h (3 Bft) W-SW 0,00 h 0,025 mm 0,0 UV-I 0 W/m 10,1 C 8,6 C 21,3 km/h (4 Bft) 97,98 %
07.05.2017 22:00 11,3 C 15,6 C 91 % 1012,1 hPa 3,6 l/m 13,3 km/h (3 Bft) W-SW 0,00 h 0,026 mm 0,0 UV-I 0 W/m 10,0 C 7,5 C 19,7 km/h (3 Bft) 96,27 %
07.05.2017 23:00 10,4 C 15,6 C 94 % 1011,9 hPa 0,8 l/m 10,0 km/h (2 Bft) W-SW 0,00 h 0,025 mm 0,0 UV-I 0 W/m 9,6 C 8,1 C 15,4 km/h (3 Bft) 95,90 %
Min-Datum _ 02.05.17 01.05.17 01.05.17 06.05.17 - 01.05.17 - - - - - 01.05.17 01.05.17 01.05.17 07.05.17
_ Min-Zeit 02:55 05:28 14:26 19:58 - 18:54 - - - - - 14:26 21:50 18:54 00:02
Minimum _ 4,0 C 10,0 C 31 % 1004,1 hPa - 0,0 km/h (0 Bft) - - - - - 1,1 C -5,1 C 0,0 km/h (0 Bft) 4,76 %
Max-Datum _ 06.05.17 06.05.17 06.05.17 05.05.17 04.05.17 01.05.17 - 02.05.17 06.05.17 06.05.17 02.05.17 06.05.17 06.05.17 01.05.17 01.05.17
_ Max-Zeit 15:06 15:18 06:20 21:08 22:26 20:24 - 07:10 13:00 13:04 13:10 15:52 15:02 20:30 00:12
Maximum _ 21,1 C 16,7 C 98 % 1017,8 hPa 5,0 l/m 36,3 km/h
W-SW (5 Bft)
- 0,08 h 0,559 mm 5,0 UV-I 1072 W/m 13,2 C 19,6 C 56,3 km/h
W-SW (7 Bft)
100,00 %
Durchschnitt _ 11,8 C 14,1 C 77 % 1012,5 hPa #18,8 l/m 9,5 km/h (2 Bft) O-NO #58:53 h #23,570 mm 1,9 UV-I 329 W/m 7,6 C 9,6 C 15,2 km/h (3 Bft) 96,59 %